sensor_id;sensor_type;location;lat;lon;timestamp;P1;durP1;ratioP1;P2;durP2;ratioP2
15067;SDS011;7633;60.024;18.770;2022-12-29T00:02:12;2.20;;;0.70;;
15067;SDS011;7633;60.024;18.770;2022-12-29T00:04:38;2.23;;;0.43;;
15067;SDS011;7633;60.024;18.770;2022-12-29T00:07:04;0.67;;;0.67;;
15067;SDS011;7633;60.024;18.770;2022-12-29T00:09:32;1.83;;;0.60;;
15067;SDS011;7633;60.024;18.770;2022-12-29T00:12:08;2.30;;;0.80;;
15067;SDS011;7633;60.024;18.770;2022-12-29T00:14:39;1.63;;;0.80;;
15067;SDS011;7633;60.024;18.770;2022-12-29T00:17:23;2.20;;;0.70;;
15067;SDS011;7633;60.024;18.770;2022-12-29T00:19:48;2.60;;;0.70;;
15067;SDS011;7633;60.024;18.770;2022-12-29T00:22:35;0.60;;;0.60;;
15067;SDS011;7633;60.024;18.770;2022-12-29T00:25:22;0.60;;;0.50;;
15067;SDS011;7633;60.024;18.770;2022-12-29T00:28:10;0.87;;;0.50;;
15067;SDS011;7633;60.024;18.770;2022-12-29T00:31:00;3.00;;;0.50;;
15067;SDS011;7633;60.024;18.770;2022-12-29T00:33:49;2.17;;;0.87;;
15067;SDS011;7633;60.024;18.770;2022-12-29T00:36:41;1.20;;;0.40;;
15067;SDS011;7633;60.024;18.770;2022-12-29T00:39:14;1.60;;;0.53;;
15067;SDS011;7633;60.024;18.770;2022-12-29T00:42:11;3.60;;;0.47;;
15067;SDS011;7633;60.024;18.770;2022-12-29T00:44:55;2.93;;;0.60;;
15067;SDS011;7633;60.024;18.770;2022-12-29T00:47:21;0.93;;;0.57;;
15067;SDS011;7633;60.024;18.770;2022-12-29T00:49:46;1.53;;;0.50;;
15067;SDS011;7633;60.024;18.770;2022-12-29T00:52:12;1.60;;;0.40;;
15067;SDS011;7633;60.024;18.770;2022-12-29T00:54:41;0.50;;;0.30;;
15067;SDS011;7633;60.024;18.770;2022-12-29T00:57:12;0.13;;;0.13;;
15067;SDS011;7633;60.024;18.770;2022-12-29T00:59:41;1.27;;;0.20;;
15067;SDS011;7633;60.024;18.770;2022-12-29T01:02:14;0.90;;;0.20;;
15067;SDS011;7633;60.024;18.770;2022-12-29T01:04:46;0.20;;;0.20;;
15067;SDS011;7633;60.024;18.770;2022-12-29T01:07:18;0.93;;;0.47;;
15067;SDS011;7633;60.024;18.770;2022-12-29T01:09:49;0.73;;;0.20;;
15067;SDS011;7633;60.024;18.770;2022-12-29T01:12:35;1.77;;;0.30;;
15067;SDS011;7633;60.024;18.770;2022-12-29T01:15:14;0.70;;;0.33;;
15067;SDS011;7633;60.024;18.770;2022-12-29T01:17:40;1.13;;;0.50;;
15067;SDS011;7633;60.024;18.770;2022-12-29T01:20:07;1.07;;;0.73;;
15067;SDS011;7633;60.024;18.770;2022-12-29T01:22:38;1.83;;;0.60;;
15067;SDS011;7633;60.024;18.770;2022-12-29T01:25:08;1.47;;;0.60;;
15067;SDS011;7633;60.024;18.770;2022-12-29T01:27:38;1.27;;;0.60;;
15067;SDS011;7633;60.024;18.770;2022-12-29T01:30:09;0.40;;;0.40;;
15067;SDS011;7633;60.024;18.770;2022-12-29T01:32:34;1.17;;;0.43;;
15067;SDS011;7633;60.024;18.770;2022-12-29T01:35:03;2.03;;;0.80;;
15067;SDS011;7633;60.024;18.770;2022-12-29T01:37:36;0.50;;;0.50;;
15067;SDS011;7633;60.024;18.770;2022-12-29T01:40:03;2.13;;;0.67;;
15067;SDS011;7633;60.024;18.770;2022-12-29T01:42:30;0.70;;;0.70;;
15067;SDS011;7633;60.024;18.770;2022-12-29T01:44:57;1.80;;;0.80;;
15067;SDS011;7633;60.024;18.770;2022-12-29T01:50:03;2.53;;;1.07;;
15067;SDS011;7633;60.024;18.770;2022-12-29T01:52:33;2.93;;;0.87;;
15067;SDS011;7633;60.024;18.770;2022-12-29T01:55:04;2.67;;;1.47;;
15067;SDS011;7633;60.024;18.770;2022-12-29T01:57:39;2.23;;;1.10;;
15067;SDS011;7633;60.024;18.770;2022-12-29T02:00:16;2.27;;;0.97;;
15067;SDS011;7633;60.024;18.770;2022-12-29T02:02:50;5.17;;;1.50;;
15067;SDS011;7633;60.024;18.770;2022-12-29T02:08:10;4.10;;;1.33;;
15067;SDS011;7633;60.024;18.770;2022-12-29T02:10:40;4.60;;;1.40;;
15067;SDS011;7633;60.024;18.770;2022-12-29T02:13:06;2.97;;;1.30;;
15067;SDS011;7633;60.024;18.770;2022-12-29T02:24:01;3.37;;;1.10;;
15067;SDS011;7633;60.024;18.770;2022-12-29T02:29:21;1.50;;;0.87;;
15067;SDS011;7633;60.024;18.770;2022-12-29T02:37:10;20.07;;;2.20;;
15067;SDS011;7633;60.024;18.770;2022-12-29T02:39:53;1.90;;;1.10;;
15067;SDS011;7633;60.024;18.770;2022-12-29T02:42:45;4.00;;;1.10;;
15067;SDS011;7633;60.024;18.770;2022-12-29T02:50:45;1.87;;;1.17;;
15067;SDS011;7633;60.024;18.770;2022-12-29T02:53:17;2.27;;;1.40;;
15067;SDS011;7633;60.024;18.770;2022-12-29T02:56:08;2.57;;;1.13;;
15067;SDS011;7633;60.024;18.770;2022-12-29T02:58:35;4.00;;;1.27;;
15067;SDS011;7633;60.024;18.770;2022-12-29T03:09:11;4.50;;;1.70;;
15067;SDS011;7633;60.024;18.770;2022-12-29T03:11:52;6.27;;;2.63;;
15067;SDS011;7633;60.024;18.770;2022-12-29T03:14:37;3.07;;;1.83;;
15067;SDS011;7633;60.024;18.770;2022-12-29T03:17:37;3.60;;;1.77;;
15067;SDS011;7633;60.024;18.770;2022-12-29T03:20:10;3.97;;;2.10;;
15067;SDS011;7633;60.024;18.770;2022-12-29T03:22:43;4.57;;;2.00;;
15067;SDS011;7633;60.024;18.770;2022-12-29T03:25:24;2.83;;;1.77;;
15067;SDS011;7633;60.024;18.770;2022-12-29T03:28:03;6.30;;;2.40;;
15067;SDS011;7633;60.024;18.770;2022-12-29T03:30:30;6.93;;;2.33;;
15067;SDS011;7633;60.024;18.770;2022-12-29T03:33:01;10.67;;;2.97;;
15067;SDS011;7633;60.024;18.770;2022-12-29T03:35:34;19.90;;;3.87;;
15067;SDS011;7633;60.024;18.770;2022-12-29T03:40:48;16.50;;;3.93;;
15067;SDS011;7633;60.024;18.770;2022-12-29T03:43:25;36.27;;;5.63;;
15067;SDS011;7633;60.024;18.770;2022-12-29T03:45:57;37.10;;;5.37;;
15067;SDS011;7633;60.024;18.770;2022-12-29T03:48:24;62.63;;;7.93;;
15067;SDS011;7633;60.024;18.770;2022-12-29T03:50:54;32.07;;;5.10;;
15067;SDS011;7633;60.024;18.770;2022-12-29T03:53:30;80.17;;;8.87;;
15067;SDS011;7633;60.024;18.770;2022-12-29T03:55:58;72.00;;;7.80;;
15067;SDS011;7633;60.024;18.770;2022-12-29T03:58:27;60.03;;;7.50;;
15067;SDS011;7633;60.024;18.770;2022-12-29T04:00:56;48.93;;;6.47;;
15067;SDS011;7633;60.024;18.770;2022-12-29T04:03:25;35.27;;;5.43;;
15067;SDS011;7633;60.024;18.770;2022-12-29T04:05:54;18.73;;;3.70;;
15067;SDS011;7633;60.024;18.770;2022-12-29T04:08:22;7.43;;;3.03;;
15067;SDS011;7633;60.024;18.770;2022-12-29T04:10:53;7.40;;;3.03;;
15067;SDS011;7633;60.024;18.770;2022-12-29T04:13:21;3.63;;;2.30;;
15067;SDS011;7633;60.024;18.770;2022-12-29T04:15:51;14.93;;;3.57;;
15067;SDS011;7633;60.024;18.770;2022-12-29T04:18:21;5.97;;;2.27;;
15067;SDS011;7633;60.024;18.770;2022-12-29T04:20:52;4.40;;;1.70;;
15067;SDS011;7633;60.024;18.770;2022-12-29T04:23:32;2.33;;;1.70;;
15067;SDS011;7633;60.024;18.770;2022-12-29T04:25:58;2.50;;;1.80;;
15067;SDS011;7633;60.024;18.770;2022-12-29T04:28:23;3.17;;;1.43;;
15067;SDS011;7633;60.024;18.770;2022-12-29T04:30:49;3.77;;;1.80;;
15067;SDS011;7633;60.024;18.770;2022-12-29T04:33:15;3.07;;;1.60;;
15067;SDS011;7633;60.024;18.770;2022-12-29T04:35:41;3.37;;;1.83;;
15067;SDS011;7633;60.024;18.770;2022-12-29T04:38:07;4.37;;;1.93;;
15067;SDS011;7633;60.024;18.770;2022-12-29T04:40:34;2.47;;;1.60;;
15067;SDS011;7633;60.024;18.770;2022-12-29T04:43:00;2.30;;;1.80;;
15067;SDS011;7633;60.024;18.770;2022-12-29T04:45:28;4.20;;;2.00;;
15067;SDS011;7633;60.024;18.770;2022-12-29T04:47:59;2.27;;;1.90;;
15067;SDS011;7633;60.024;18.770;2022-12-29T04:50:25;3.30;;;2.00;;
15067;SDS011;7633;60.024;18.770;2022-12-29T04:52:51;3.10;;;2.07;;
15067;SDS011;7633;60.024;18.770;2022-12-29T04:55:21;4.40;;;2.60;;
15067;SDS011;7633;60.024;18.770;2022-12-29T04:57:52;3.73;;;2.17;;
15067;SDS011;7633;60.024;18.770;2022-12-29T05:00:22;4.07;;;2.10;;
15067;SDS011;7633;60.024;18.770;2022-12-29T05:02:52;3.80;;;2.37;;
15067;SDS011;7633;60.024;18.770;2022-12-29T05:05:23;2.93;;;1.83;;
15067;SDS011;7633;60.024;18.770;2022-12-29T05:07:49;2.27;;;1.93;;
15067;SDS011;7633;60.024;18.770;2022-12-29T05:10:15;4.23;;;2.20;;
15067;SDS011;7633;60.024;18.770;2022-12-29T05:12:41;5.57;;;2.47;;
15067;SDS011;7633;60.024;18.770;2022-12-29T05:15:07;4.50;;;2.23;;
15067;SDS011;7633;60.024;18.770;2022-12-29T05:17:33;3.73;;;2.13;;
15067;SDS011;7633;60.024;18.770;2022-12-29T05:20:00;3.93;;;2.23;;
15067;SDS011;7633;60.024;18.770;2022-12-29T05:22:26;3.10;;;2.17;;
15067;SDS011;7633;60.024;18.770;2022-12-29T05:24:52;3.30;;;2.23;;
15067;SDS011;7633;60.024;18.770;2022-12-29T05:27:17;4.53;;;2.77;;
15067;SDS011;7633;60.024;18.770;2022-12-29T05:29:43;3.67;;;2.37;;
15067;SDS011;7633;60.024;18.770;2022-12-29T05:32:11;4.60;;;2.60;;
15067;SDS011;7633;60.024;18.770;2022-12-29T05:34:45;5.07;;;2.10;;
15067;SDS011;7633;60.024;18.770;2022-12-29T05:37:19;2.13;;;1.80;;
15067;SDS011;7633;60.024;18.770;2022-12-29T05:39:48;1.90;;;1.43;;
15067;SDS011;7633;60.024;18.770;2022-12-29T05:42:17;1.80;;;1.53;;
15067;SDS011;7633;60.024;18.770;2022-12-29T05:44:43;2.00;;;1.43;;
15067;SDS011;7633;60.024;18.770;2022-12-29T05:47:12;4.47;;;1.40;;
15067;SDS011;7633;60.024;18.770;2022-12-29T05:49:43;2.67;;;1.40;;
15067;SDS011;7633;60.024;18.770;2022-12-29T05:52:09;1.97;;;1.40;;
15067;SDS011;7633;60.024;18.770;2022-12-29T05:54:34;1.33;;;1.20;;
15067;SDS011;7633;60.024;18.770;2022-12-29T05:57:00;3.50;;;1.80;;
15067;SDS011;7633;60.024;18.770;2022-12-29T05:59:25;3.43;;;1.57;;
15067;SDS011;7633;60.024;18.770;2022-12-29T06:01:53;2.80;;;1.50;;
15067;SDS011;7633;60.024;18.770;2022-12-29T06:04:24;2.07;;;1.20;;
15067;SDS011;7633;60.024;18.770;2022-12-29T06:06:52;3.07;;;1.30;;
15067;SDS011;7633;60.024;18.770;2022-12-29T06:09:18;2.03;;;1.30;;
15067;SDS011;7633;60.024;18.770;2022-12-29T06:11:43;2.60;;;1.53;;
15067;SDS011;7633;60.024;18.770;2022-12-29T06:14:09;1.37;;;1.10;;
15067;SDS011;7633;60.024;18.770;2022-12-29T06:16:35;1.20;;;1.10;;
15067;SDS011;7633;60.024;18.770;2022-12-29T06:19:02;1.00;;;0.80;;
15067;SDS011;7633;60.024;18.770;2022-12-29T06:21:27;2.30;;;1.40;;
15067;SDS011;7633;60.024;18.770;2022-12-29T06:23:54;1.30;;;1.20;;
15067;SDS011;7633;60.024;18.770;2022-12-29T06:26:21;2.27;;;1.30;;
15067;SDS011;7633;60.024;18.770;2022-12-29T06:28:46;2.90;;;1.47;;
15067;SDS011;7633;60.024;18.770;2022-12-29T06:31:16;2.77;;;1.80;;
15067;SDS011;7633;60.024;18.770;2022-12-29T06:33:49;1.70;;;1.53;;
15067;SDS011;7633;60.024;18.770;2022-12-29T06:36:21;4.93;;;1.97;;
15067;SDS011;7633;60.024;18.770;2022-12-29T06:38:47;5.60;;;2.43;;
15067;SDS011;7633;60.024;18.770;2022-12-29T06:41:13;2.13;;;1.53;;
15067;SDS011;7633;60.024;18.770;2022-12-29T06:43:42;4.17;;;2.10;;
15067;SDS011;7633;60.024;18.770;2022-12-29T06:46:18;2.50;;;2.20;;
15067;SDS011;7633;60.024;18.770;2022-12-29T06:48:50;3.00;;;2.00;;
15067;SDS011;7633;60.024;18.770;2022-12-29T06:51:19;4.10;;;2.17;;
15067;SDS011;7633;60.024;18.770;2022-12-29T06:53:49;2.33;;;1.90;;
15067;SDS011;7633;60.024;18.770;2022-12-29T06:56:22;1.97;;;1.77;;
15067;SDS011;7633;60.024;18.770;2022-12-29T06:58:47;1.97;;;1.60;;
15067;SDS011;7633;60.024;18.770;2022-12-29T07:01:14;1.80;;;1.70;;
15067;SDS011;7633;60.024;18.770;2022-12-29T07:03:59;1.57;;;1.20;;
15067;SDS011;7633;60.024;18.770;2022-12-29T07:06:44;1.23;;;0.97;;
15067;SDS011;7633;60.024;18.770;2022-12-29T07:09:13;1.60;;;1.50;;
15067;SDS011;7633;60.024;18.770;2022-12-29T07:11:42;1.53;;;1.37;;
15067;SDS011;7633;60.024;18.770;2022-12-29T07:14:10;2.03;;;1.83;;
15067;SDS011;7633;60.024;18.770;2022-12-29T07:16:39;2.57;;;1.40;;
15067;SDS011;7633;60.024;18.770;2022-12-29T07:19:07;1.93;;;1.70;;
15067;SDS011;7633;60.024;18.770;2022-12-29T07:21:35;1.37;;;1.00;;
15067;SDS011;7633;60.024;18.770;2022-12-29T07:24:04;1.77;;;1.00;;
15067;SDS011;7633;60.024;18.770;2022-12-29T07:26:32;2.40;;;1.20;;
15067;SDS011;7633;60.024;18.770;2022-12-29T07:29:00;1.60;;;0.93;;
15067;SDS011;7633;60.024;18.770;2022-12-29T07:31:29;2.40;;;1.20;;
15067;SDS011;7633;60.024;18.770;2022-12-29T07:33:57;1.47;;;0.90;;
15067;SDS011;7633;60.024;18.770;2022-12-29T07:36:26;1.30;;;1.20;;
15067;SDS011;7633;60.024;18.770;2022-12-29T07:38:54;1.20;;;0.90;;
15067;SDS011;7633;60.024;18.770;2022-12-29T07:41:23;1.00;;;0.87;;
15067;SDS011;7633;60.024;18.770;2022-12-29T07:43:51;0.93;;;0.80;;
15067;SDS011;7633;60.024;18.770;2022-12-29T07:46:19;1.87;;;1.00;;
15067;SDS011;7633;60.024;18.770;2022-12-29T07:48:48;1.70;;;1.20;;
15067;SDS011;7633;60.024;18.770;2022-12-29T07:51:16;1.70;;;1.37;;
15067;SDS011;7633;60.024;18.770;2022-12-29T07:53:46;2.67;;;1.40;;
15067;SDS011;7633;60.024;18.770;2022-12-29T07:56:15;0.67;;;0.67;;
15067;SDS011;7633;60.024;18.770;2022-12-29T07:58:43;1.10;;;0.70;;
15067;SDS011;7633;60.024;18.770;2022-12-29T08:01:12;1.43;;;1.00;;
15067;SDS011;7633;60.024;18.770;2022-12-29T08:03:40;0.63;;;0.63;;
15067;SDS011;7633;60.024;18.770;2022-12-29T08:06:10;0.70;;;0.60;;
15067;SDS011;7633;60.024;18.770;2022-12-29T08:08:38;1.47;;;0.90;;
15067;SDS011;7633;60.024;18.770;2022-12-29T08:11:07;0.60;;;0.60;;
15067;SDS011;7633;60.024;18.770;2022-12-29T08:13:35;1.20;;;0.60;;
15067;SDS011;7633;60.024;18.770;2022-12-29T08:16:04;0.47;;;0.47;;
15067;SDS011;7633;60.024;18.770;2022-12-29T08:18:30;0.77;;;0.50;;
15067;SDS011;7633;60.024;18.770;2022-12-29T08:21:02;0.37;;;0.30;;
15067;SDS011;7633;60.024;18.770;2022-12-29T08:23:31;0.70;;;0.60;;
15067;SDS011;7633;60.024;18.770;2022-12-29T08:26:00;1.00;;;0.73;;
15067;SDS011;7633;60.024;18.770;2022-12-29T08:28:30;0.70;;;0.60;;
15067;SDS011;7633;60.024;18.770;2022-12-29T08:30:59;1.97;;;1.00;;
15067;SDS011;7633;60.024;18.770;2022-12-29T08:33:27;2.90;;;1.13;;
15067;SDS011;7633;60.024;18.770;2022-12-29T08:36:00;2.10;;;1.40;;
15067;SDS011;7633;60.024;18.770;2022-12-29T08:38:28;1.60;;;1.50;;
15067;SDS011;7633;60.024;18.770;2022-12-29T08:40:57;2.13;;;1.70;;
15067;SDS011;7633;60.024;18.770;2022-12-29T08:43:26;3.00;;;1.70;;
15067;SDS011;7633;60.024;18.770;2022-12-29T08:45:55;2.07;;;1.60;;
15067;SDS011;7633;60.024;18.770;2022-12-29T08:48:24;1.37;;;1.23;;
15067;SDS011;7633;60.024;18.770;2022-12-29T08:50:52;1.27;;;1.10;;
15067;SDS011;7633;60.024;18.770;2022-12-29T08:53:21;1.00;;;0.77;;
15067;SDS011;7633;60.024;18.770;2022-12-29T08:55:54;0.97;;;0.87;;
15067;SDS011;7633;60.024;18.770;2022-12-29T08:58:23;1.30;;;0.90;;
15067;SDS011;7633;60.024;18.770;2022-12-29T09:00:52;0.97;;;0.87;;
15067;SDS011;7633;60.024;18.770;2022-12-29T09:03:22;1.60;;;1.13;;
15067;SDS011;7633;60.024;18.770;2022-12-29T09:05:54;2.37;;;1.30;;
15067;SDS011;7633;60.024;18.770;2022-12-29T09:08:23;1.50;;;0.90;;
15067;SDS011;7633;60.024;18.770;2022-12-29T09:10:51;2.07;;;1.37;;
15067;SDS011;7633;60.024;18.770;2022-12-29T09:13:20;1.90;;;1.20;;
15067;SDS011;7633;60.024;18.770;2022-12-29T09:15:48;2.27;;;1.47;;
15067;SDS011;7633;60.024;18.770;2022-12-29T09:18:16;3.60;;;1.60;;
15067;SDS011;7633;60.024;18.770;2022-12-29T09:21:01;3.30;;;1.40;;
15067;SDS011;7633;60.024;18.770;2022-12-29T09:23:30;2.23;;;1.30;;
15067;SDS011;7633;60.024;18.770;2022-12-29T09:25:59;2.30;;;0.90;;
15067;SDS011;7633;60.024;18.770;2022-12-29T09:28:28;0.80;;;0.70;;
15067;SDS011;7633;60.024;18.770;2022-12-29T09:30:57;2.03;;;1.37;;
15067;SDS011;7633;60.024;18.770;2022-12-29T09:33:25;1.33;;;1.20;;
15067;SDS011;7633;60.024;18.770;2022-12-29T09:35:55;1.93;;;1.40;;
15067;SDS011;7633;60.024;18.770;2022-12-29T09:38:24;2.97;;;2.33;;
15067;SDS011;7633;60.024;18.770;2022-12-29T09:46:26;8.30;;;5.93;;
15067;SDS011;7633;60.024;18.770;2022-12-29T09:51:23;8.87;;;6.77;;
15067;SDS011;7633;60.024;18.770;2022-12-29T09:53:53;8.87;;;5.83;;
15067;SDS011;7633;60.024;18.770;2022-12-29T09:56:23;12.60;;;7.70;;
15067;SDS011;7633;60.024;18.770;2022-12-29T09:58:58;11.87;;;7.53;;
15067;SDS011;7633;60.024;18.770;2022-12-29T10:01:38;8.00;;;5.30;;
15067;SDS011;7633;60.024;18.770;2022-12-29T10:04:09;9.20;;;5.87;;
15067;SDS011;7633;60.024;18.770;2022-12-29T10:09:17;6.00;;;3.63;;
15067;SDS011;7633;60.024;18.770;2022-12-29T10:12:11;8.30;;;5.03;;
15067;SDS011;7633;60.024;18.770;2022-12-29T10:17:47;7.03;;;4.43;;
15067;SDS011;7633;60.024;18.770;2022-12-29T10:25:28;7.13;;;5.10;;
15067;SDS011;7633;60.024;18.770;2022-12-29T10:27:59;10.37;;;5.43;;
15067;SDS011;7633;60.024;18.770;2022-12-29T10:30:28;7.37;;;4.80;;
15067;SDS011;7633;60.024;18.770;2022-12-29T10:32:58;5.83;;;3.53;;
15067;SDS011;7633;60.024;18.770;2022-12-29T10:35:31;3.63;;;2.43;;
15067;SDS011;7633;60.024;18.770;2022-12-29T10:40:58;2.97;;;2.07;;
15067;SDS011;7633;60.024;18.770;2022-12-29T10:43:29;2.73;;;1.23;;
15067;SDS011;7633;60.024;18.770;2022-12-29T10:46:02;2.23;;;1.77;;
15067;SDS011;7633;60.024;18.770;2022-12-29T10:48:33;4.33;;;2.17;;
15067;SDS011;7633;60.024;18.770;2022-12-29T10:51:02;4.17;;;1.70;;
15067;SDS011;7633;60.024;18.770;2022-12-29T10:53:40;3.87;;;1.83;;
15067;SDS011;7633;60.024;18.770;2022-12-29T10:56:14;3.07;;;2.00;;
15067;SDS011;7633;60.024;18.770;2022-12-29T10:58:45;4.27;;;1.97;;
15067;SDS011;7633;60.024;18.770;2022-12-29T11:01:16;4.97;;;2.40;;
15067;SDS011;7633;60.024;18.770;2022-12-29T11:03:58;2.93;;;1.50;;
15067;SDS011;7633;60.024;18.770;2022-12-29T11:06:26;4.17;;;2.63;;
15067;SDS011;7633;60.024;18.770;2022-12-29T11:08:53;5.60;;;2.60;;
15067;SDS011;7633;60.024;18.770;2022-12-29T11:11:22;2.80;;;2.60;;
15067;SDS011;7633;60.024;18.770;2022-12-29T11:13:55;4.23;;;3.40;;
15067;SDS011;7633;60.024;18.770;2022-12-29T11:16:28;3.90;;;3.53;;
15067;SDS011;7633;60.024;18.770;2022-12-29T11:18:55;7.33;;;4.57;;
15067;SDS011;7633;60.024;18.770;2022-12-29T11:24:05;5.73;;;5.17;;
15067;SDS011;7633;60.024;18.770;2022-12-29T11:26:31;3.43;;;2.57;;
15067;SDS011;7633;60.024;18.770;2022-12-29T11:31:51;6.30;;;3.60;;
15067;SDS011;7633;60.024;18.770;2022-12-29T11:34:51;3.23;;;2.93;;
15067;SDS011;7633;60.024;18.770;2022-12-29T11:37:16;2.67;;;2.20;;
15067;SDS011;7633;60.024;18.770;2022-12-29T11:42:16;1.50;;;1.40;;
15067;SDS011;7633;60.024;18.770;2022-12-29T11:44:43;1.90;;;1.80;;
15067;SDS011;7633;60.024;18.770;2022-12-29T11:47:10;1.03;;;0.93;;
15067;SDS011;7633;60.024;18.770;2022-12-29T11:49:37;2.70;;;1.60;;
15067;SDS011;7633;60.024;18.770;2022-12-29T11:52:03;1.40;;;0.90;;
15067;SDS011;7633;60.024;18.770;2022-12-29T11:54:32;1.07;;;0.90;;
15067;SDS011;7633;60.024;18.770;2022-12-29T11:57:08;1.93;;;1.20;;
15067;SDS011;7633;60.024;18.770;2022-12-29T11:59:39;2.60;;;1.43;;
15067;SDS011;7633;60.024;18.770;2022-12-29T12:04:40;1.77;;;1.50;;
15067;SDS011;7633;60.024;18.770;2022-12-29T12:07:13;3.43;;;2.60;;
15067;SDS011;7633;60.024;18.770;2022-12-29T12:12:21;2.30;;;2.00;;
15067;SDS011;7633;60.024;18.770;2022-12-29T12:14:54;1.87;;;1.70;;
15067;SDS011;7633;60.024;18.770;2022-12-29T12:17:29;1.30;;;1.20;;
15067;SDS011;7633;60.024;18.770;2022-12-29T12:20:05;1.20;;;1.00;;
15067;SDS011;7633;60.024;18.770;2022-12-29T12:22:36;1.30;;;0.80;;
15067;SDS011;7633;60.024;18.770;2022-12-29T12:27:39;0.60;;;0.57;;
15067;SDS011;7633;60.024;18.770;2022-12-29T12:35:11;0.43;;;0.40;;
15067;SDS011;7633;60.024;18.770;2022-12-29T12:50:43;1.13;;;1.03;;
15067;SDS011;7633;60.024;18.770;2022-12-29T12:53:18;1.30;;;1.20;;
15067;SDS011;7633;60.024;18.770;2022-12-29T13:01:46;1.70;;;1.53;;
15067;SDS011;7633;60.024;18.770;2022-12-29T13:14:45;1.90;;;1.80;;
15067;SDS011;7633;60.024;18.770;2022-12-29T13:17:18;1.60;;;1.50;;
15067;SDS011;7633;60.024;18.770;2022-12-29T13:22:32;1.53;;;1.13;;
15067;SDS011;7633;60.024;18.770;2022-12-29T13:27:50;1.43;;;1.33;;
15067;SDS011;7633;60.024;18.770;2022-12-29T13:30:17;0.77;;;0.70;;
15067;SDS011;7633;60.024;18.770;2022-12-29T13:32:49;1.43;;;1.00;;
15067;SDS011;7633;60.024;18.770;2022-12-29T13:37:49;2.73;;;0.87;;
15067;SDS011;7633;60.024;18.770;2022-12-29T13:40:17;0.90;;;0.73;;
15067;SDS011;7633;60.024;18.770;2022-12-29T13:42:43;0.90;;;0.90;;
15067;SDS011;7633;60.024;18.770;2022-12-29T13:45:11;0.77;;;0.70;;
15067;SDS011;7633;60.024;18.770;2022-12-29T13:50:16;0.80;;;0.80;;
15067;SDS011;7633;60.024;18.770;2022-12-29T13:52:44;0.70;;;0.70;;
15067;SDS011;7633;60.024;18.770;2022-12-29T13:57:49;1.37;;;0.90;;
15067;SDS011;7633;60.024;18.770;2022-12-29T14:00:20;0.60;;;0.60;;
15067;SDS011;7633;60.024;18.770;2022-12-29T14:07:44;1.63;;;1.20;;
15067;SDS011;7633;60.024;18.770;2022-12-29T14:13:10;1.00;;;0.90;;
15067;SDS011;7633;60.024;18.770;2022-12-29T14:15:55;1.53;;;0.70;;
15067;SDS011;7633;60.024;18.770;2022-12-29T14:18:24;0.83;;;0.83;;
15067;SDS011;7633;60.024;18.770;2022-12-29T14:20:52;1.77;;;1.13;;
15067;SDS011;7633;60.024;18.770;2022-12-29T14:28:56;1.30;;;1.17;;
15067;SDS011;7633;60.024;18.770;2022-12-29T14:42:11;3.80;;;1.10;;
15067;SDS011;7633;60.024;18.770;2022-12-29T14:44:50;1.03;;;0.90;;
15067;SDS011;7633;60.024;18.770;2022-12-29T14:49:48;2.40;;;1.10;;
15067;SDS011;7633;60.024;18.770;2022-12-29T14:52:20;0.50;;;0.50;;
15067;SDS011;7633;60.024;18.770;2022-12-29T14:54:49;1.67;;;0.90;;
15067;SDS011;7633;60.024;18.770;2022-12-29T14:57:39;0.80;;;0.80;;
15067;SDS011;7633;60.024;18.770;2022-12-29T15:00:19;0.70;;;0.70;;
15067;SDS011;7633;60.024;18.770;2022-12-29T15:05:48;1.07;;;0.70;;
15067;SDS011;7633;60.024;18.770;2022-12-29T15:13:52;0.97;;;0.77;;
15067;SDS011;7633;60.024;18.770;2022-12-29T15:16:26;0.73;;;0.73;;
15067;SDS011;7633;60.024;18.770;2022-12-29T15:19:02;1.40;;;1.07;;
15067;SDS011;7633;60.024;18.770;2022-12-29T15:21:34;0.37;;;0.30;;
15067;SDS011;7633;60.024;18.770;2022-12-29T15:24:00;1.20;;;1.10;;
15067;SDS011;7633;60.024;18.770;2022-12-29T15:26:39;0.70;;;0.70;;
15067;SDS011;7633;60.024;18.770;2022-12-29T15:31:58;2.17;;;0.83;;
15067;SDS011;7633;60.024;18.770;2022-12-29T15:34:29;0.80;;;0.80;;
15067;SDS011;7633;60.024;18.770;2022-12-29T15:37:06;1.70;;;0.90;;
15067;SDS011;7633;60.024;18.770;2022-12-29T15:39:33;1.33;;;0.90;;
15067;SDS011;7633;60.024;18.770;2022-12-29T15:44:44;0.70;;;0.70;;
15067;SDS011;7633;60.024;18.770;2022-12-29T15:49:49;2.10;;;0.70;;
15067;SDS011;7633;60.024;18.770;2022-12-29T15:52:18;1.53;;;0.70;;
15067;SDS011;7633;60.024;18.770;2022-12-29T15:54:45;1.20;;;1.00;;
15067;SDS011;7633;60.024;18.770;2022-12-29T15:57:25;0.60;;;0.60;;
15067;SDS011;7633;60.024;18.770;2022-12-29T15:59:54;0.80;;;0.80;;
15067;SDS011;7633;60.024;18.770;2022-12-29T16:02:26;0.80;;;0.80;;
15067;SDS011;7633;60.024;18.770;2022-12-29T16:04:55;0.73;;;0.70;;
15067;SDS011;7633;60.024;18.770;2022-12-29T16:07:30;1.47;;;0.87;;
15067;SDS011;7633;60.024;18.770;2022-12-29T16:10:04;1.57;;;0.90;;
15067;SDS011;7633;60.024;18.770;2022-12-29T16:12:36;1.77;;;0.80;;
15067;SDS011;7633;60.024;18.770;2022-12-29T16:15:13;0.93;;;0.80;;
15067;SDS011;7633;60.024;18.770;2022-12-29T16:17:48;1.27;;;1.07;;
15067;SDS011;7633;60.024;18.770;2022-12-29T16:20:19;2.33;;;1.20;;
15067;SDS011;7633;60.024;18.770;2022-12-29T16:22:53;0.90;;;0.90;;
15067;SDS011;7633;60.024;18.770;2022-12-29T16:25:33;1.00;;;0.50;;
15067;SDS011;7633;60.024;18.770;2022-12-29T16:28:21;0.70;;;0.60;;
15067;SDS011;7633;60.024;18.770;2022-12-29T16:30:59;1.73;;;1.10;;
15067;SDS011;7633;60.024;18.770;2022-12-29T16:33:36;1.30;;;0.77;;
15067;SDS011;7633;60.024;18.770;2022-12-29T16:36:27;2.37;;;0.97;;
15067;SDS011;7633;60.024;18.770;2022-12-29T16:39:02;0.70;;;0.70;;
15067;SDS011;7633;60.024;18.770;2022-12-29T16:41:31;1.37;;;1.27;;
15067;SDS011;7633;60.024;18.770;2022-12-29T16:44:15;1.40;;;1.10;;
15067;SDS011;7633;60.024;18.770;2022-12-29T16:49:35;1.43;;;0.97;;
15067;SDS011;7633;60.024;18.770;2022-12-29T16:52:16;1.33;;;1.17;;
15067;SDS011;7633;60.024;18.770;2022-12-29T16:54:51;1.43;;;1.13;;
15067;SDS011;7633;60.024;18.770;2022-12-29T16:57:22;1.57;;;1.47;;
15067;SDS011;7633;60.024;18.770;2022-12-29T16:59:59;2.17;;;1.10;;
15067;SDS011;7633;60.024;18.770;2022-12-29T17:02:32;2.77;;;0.53;;
15067;SDS011;7633;60.024;18.770;2022-12-29T17:05:13;1.30;;;1.20;;
15067;SDS011;7633;60.024;18.770;2022-12-29T17:07:41;2.50;;;1.50;;
15067;SDS011;7633;60.024;18.770;2022-12-29T17:10:08;1.43;;;1.30;;
15067;SDS011;7633;60.024;18.770;2022-12-29T17:12:45;1.47;;;1.37;;
15067;SDS011;7633;60.024;18.770;2022-12-29T17:15:26;1.70;;;1.60;;
15067;SDS011;7633;60.024;18.770;2022-12-29T17:17:59;1.70;;;1.60;;
15067;SDS011;7633;60.024;18.770;2022-12-29T17:20:28;1.60;;;1.50;;
15067;SDS011;7633;60.024;18.770;2022-12-29T17:23:04;1.37;;;1.27;;
15067;SDS011;7633;60.024;18.770;2022-12-29T17:25:38;2.17;;;1.50;;
15067;SDS011;7633;60.024;18.770;2022-12-29T17:30:45;1.53;;;1.40;;
15067;SDS011;7633;60.024;18.770;2022-12-29T17:33:12;2.53;;;1.23;;
15067;SDS011;7633;60.024;18.770;2022-12-29T17:35:38;1.50;;;1.40;;
15067;SDS011;7633;60.024;18.770;2022-12-29T17:38:50;1.27;;;1.10;;
15067;SDS011;7633;60.024;18.770;2022-12-29T17:40:53;1.57;;;1.47;;
15067;SDS011;7633;60.024;18.770;2022-12-29T17:43:24;1.17;;;1.07;;
15067;SDS011;7633;60.024;18.770;2022-12-29T17:45:55;2.13;;;1.20;;
15067;SDS011;7633;60.024;18.770;2022-12-29T17:48:25;1.17;;;1.07;;
15067;SDS011;7633;60.024;18.770;2022-12-29T17:50:54;1.60;;;1.43;;
15067;SDS011;7633;60.024;18.770;2022-12-29T17:53:30;1.53;;;1.30;;
15067;SDS011;7633;60.024;18.770;2022-12-29T17:55:57;2.57;;;1.17;;
15067;SDS011;7633;60.024;18.770;2022-12-29T17:58:28;1.20;;;1.10;;
15067;SDS011;7633;60.024;18.770;2022-12-29T18:01:05;1.13;;;1.03;;
15067;SDS011;7633;60.024;18.770;2022-12-29T18:03:36;1.37;;;1.27;;
15067;SDS011;7633;60.024;18.770;2022-12-29T18:06:04;1.60;;;1.50;;